sensor_id;sensor_type;location;lat;lon;timestamp;pressure;altitude;pressure_sealevel;temperature;humidity
47522;BME280;32291;52.010;4.446;2023-04-08T00:00:52;79431.00;;;-144.67;100.00
47522;BME280;32291;52.010;4.446;2023-04-08T00:01:54;79418.16;;;-144.67;100.00
47522;BME280;32291;52.010;4.446;2023-04-08T00:02:56;79422.44;;;-144.67;100.00
47522;BME280;32291;52.010;4.446;2023-04-08T00:03:57;79405.31;;;-144.67;100.00
47522;BME280;32291;52.010;4.446;2023-04-08T00:04:59;79416.00;;;-144.67;100.00
47522;BME280;32291;52.010;4.446;2023-04-08T00:06:00;79420.28;;;-144.67;100.00
47522;BME280;32291;52.010;4.446;2023-04-08T00:07:03;79418.16;;;-144.67;100.00
47522;BME280;32291;52.010;4.446;2023-04-08T00:08:05;79409.59;;;-144.67;100.00
47522;BME280;32291;52.010;4.446;2023-04-08T00:09:07;79411.72;;;-144.67;100.00
47522;BME280;32291;52.010;4.446;2023-04-08T00:10:09;79409.59;;;-144.67;100.00
47522;BME280;32291;52.010;4.446;2023-04-08T00:11:11;79411.72;;;-144.67;100.00
47522;BME280;32291;52.010;4.446;2023-04-08T00:12:13;79407.44;;;-144.67;100.00
47522;BME280;32291;52.010;4.446;2023-04-08T00:13:15;79405.31;;;-144.67;100.00
47522;BME280;32291;52.010;4.446;2023-04-08T00:14:19;79409.59;;;-144.67;100.00
47522;BME280;32291;52.010;4.446;2023-04-08T00:15:21;79407.44;;;-144.67;100.00
47522;BME280;32291;52.010;4.446;2023-04-08T00:16:23;79401.03;;;-144.67;100.00
47522;BME280;32291;52.010;4.446;2023-04-08T00:17:25;79396.75;;;-144.67;100.00
47522;BME280;32291;52.010;4.446;2023-04-08T00:18:27;79401.03;;;-144.67;100.00
47522;BME280;32291;52.010;4.446;2023-04-08T00:19:30;79401.03;;;-144.67;100.00
47522;BME280;32291;52.010;4.446;2023-04-08T00:20:32;79403.16;;;-144.67;100.00
47522;BME280;32291;52.010;4.446;2023-04-08T00:21:34;79405.31;;;-144.67;100.00
47522;BME280;32291;52.010;4.446;2023-04-08T00:22:36;79405.31;;;-144.67;100.00
47522;BME280;32291;52.010;4.446;2023-04-08T00:23:38;79409.59;;;-144.67;100.00
47522;BME280;32291;52.010;4.446;2023-04-08T00:24:40;79411.72;;;-144.67;100.00
47522;BME280;32291;52.010;4.446;2023-04-08T00:25:42;79426.72;;;-144.67;100.00
47522;BME280;32291;52.010;4.446;2023-04-08T00:26:44;79422.44;;;-144.67;100.00
47522;BME280;32291;52.010;4.446;2023-04-08T00:27:46;79422.44;;;-144.67;100.00
47522;BME280;32291;52.010;4.446;2023-04-08T00:28:48;79422.44;;;-144.67;100.00
47522;BME280;32291;52.010;4.446;2023-04-08T00:29:50;79428.88;;;-144.67;100.00
47522;BME280;32291;52.010;4.446;2023-04-08T00:30:52;79433.16;;;-144.67;100.00
47522;BME280;32291;52.010;4.446;2023-04-08T00:31:54;79424.56;;;-144.67;100.00
47522;BME280;32291;52.010;4.446;2023-04-08T00:32:56;79420.28;;;-144.67;100.00
47522;BME280;32291;52.010;4.446;2023-04-08T00:33:58;79418.16;;;-144.67;100.00
47522;BME280;32291;52.010;4.446;2023-04-08T00:35:00;79426.72;;;-144.67;100.00
47522;BME280;32291;52.010;4.446;2023-04-08T00:36:02;79418.16;;;-144.67;100.00
47522;BME280;32291;52.010;4.446;2023-04-08T00:37:04;79418.16;;;-144.67;100.00
47522;BME280;32291;52.010;4.446;2023-04-08T00:38:06;79426.72;;;-144.67;100.00
47522;BME280;32291;52.010;4.446;2023-04-08T00:39:08;79433.16;;;-144.67;100.00
47522;BME280;32291;52.010;4.446;2023-04-08T00:40:11;79422.44;;;-144.67;100.00
47522;BME280;32291;52.010;4.446;2023-04-08T00:41:13;79431.00;;;-144.67;100.00
47522;BME280;32291;52.010;4.446;2023-04-08T00:42:15;79426.72;;;-144.67;100.00
47522;BME280;32291;52.010;4.446;2023-04-08T00:43:17;79435.28;;;-144.67;100.00
47522;BME280;32291;52.010;4.446;2023-04-08T00:44:21;79435.28;;;-144.67;100.00
47522;BME280;32291;52.010;4.446;2023-04-08T00:45:23;79443.84;;;-144.67;100.00
47522;BME280;32291;52.010;4.446;2023-04-08T00:46:25;79439.56;;;-144.67;100.00
47522;BME280;32291;52.010;4.446;2023-04-08T00:47:27;79439.56;;;-144.67;100.00
47522;BME280;32291;52.010;4.446;2023-04-08T00:48:29;79435.28;;;-144.67;100.00
47522;BME280;32291;52.010;4.446;2023-04-08T00:49:31;79433.16;;;-144.67;100.00
47522;BME280;32291;52.010;4.446;2023-04-08T00:50:33;79426.72;;;-144.67;100.00
47522;BME280;32291;52.010;4.446;2023-04-08T00:51:36;79437.44;;;-144.67;100.00
47522;BME280;32291;52.010;4.446;2023-04-08T00:52:37;79446.00;;;-144.67;100.00
47522;BME280;32291;52.010;4.446;2023-04-08T00:53:39;79431.00;;;-144.67;100.00
47522;BME280;32291;52.010;4.446;2023-04-08T00:54:41;79441.72;;;-144.67;100.00
47522;BME280;32291;52.010;4.446;2023-04-08T00:55:43;79433.16;;;-144.67;100.00
47522;BME280;32291;52.010;4.446;2023-04-08T00:56:45;79431.00;;;-144.67;100.00
47522;BME280;32291;52.010;4.446;2023-04-08T00:57:47;79431.00;;;-144.67;100.00
47522;BME280;32291;52.010;4.446;2023-04-08T00:58:50;79435.28;;;-144.67;100.00
47522;BME280;32291;52.010;4.446;2023-04-08T00:59:55;79439.56;;;-144.67;100.00
47522;BME280;32291;52.010;4.446;2023-04-08T01:01:08;79443.84;;;-144.67;100.00
47522;BME280;32291;52.010;4.446;2023-04-08T01:04:32;79446.00;;;-144.67;100.00
47522;BME280;32291;52.010;4.446;2023-04-08T01:06:13;79448.13;;;-144.67;100.00
47522;BME280;32291;52.010;4.446;2023-04-08T01:07:27;79450.28;;;-144.67;100.00
47522;BME280;32291;52.010;4.446;2023-04-08T01:08:30;79458.84;;;-144.67;100.00
47522;BME280;32291;52.010;4.446;2023-04-08T01:09:38;79456.69;;;-144.67;100.00
47522;BME280;32291;52.010;4.446;2023-04-08T01:10:44;79461.00;;;-144.67;100.00
47522;BME280;32291;52.010;4.446;2023-04-08T01:11:49;79461.00;;;-144.67;100.00
47522;BME280;32291;52.010;4.446;2023-04-08T01:12:58;79461.00;;;-144.67;100.00
47522;BME280;32291;52.010;4.446;2023-04-08T01:14:05;79461.00;;;-144.67;100.00
47522;BME280;32291;52.010;4.446;2023-04-08T01:15:11;79469.56;;;-144.67;100.00
47522;BME280;32291;52.010;4.446;2023-04-08T01:16:15;79473.84;;;-144.67;100.00
47522;BME280;32291;52.010;4.446;2023-04-08T01:17:20;79467.41;;;-144.67;100.00
47522;BME280;32291;52.010;4.446;2023-04-08T01:18:23;79461.00;;;-144.67;100.00
47522;BME280;32291;52.010;4.446;2023-04-08T01:19:33;79469.56;;;-144.67;100.00
47522;BME280;32291;52.010;4.446;2023-04-08T01:20:37;79465.28;;;-144.67;100.00
47522;BME280;32291;52.010;4.446;2023-04-08T01:21:40;79465.28;;;-144.67;100.00
47522;BME280;32291;52.010;4.446;2023-04-08T01:24:42;79452.41;;;-144.67;100.00
47522;BME280;32291;52.010;4.446;2023-04-08T01:25:52;79452.41;;;-144.67;100.00
47522;BME280;32291;52.010;4.446;2023-04-08T01:26:56;79452.41;;;-144.67;100.00
47522;BME280;32291;52.010;4.446;2023-04-08T01:28:14;79443.84;;;-144.67;100.00
47522;BME280;32291;52.010;4.446;2023-04-08T01:29:18;79448.13;;;-144.67;100.00
47522;BME280;32291;52.010;4.446;2023-04-08T01:30:20;79454.56;;;-144.67;100.00
47522;BME280;32291;52.010;4.446;2023-04-08T01:31:25;79461.00;;;-144.67;100.00
47522;BME280;32291;52.010;4.446;2023-04-08T01:32:28;79458.84;;;-144.67;100.00
47522;BME280;32291;52.010;4.446;2023-04-08T01:33:31;79456.69;;;-144.67;100.00
47522;BME280;32291;52.010;4.446;2023-04-08T01:34:36;79452.41;;;-144.67;100.00
47522;BME280;32291;52.010;4.446;2023-04-08T01:35:39;79454.56;;;-144.67;100.00
47522;BME280;32291;52.010;4.446;2023-04-08T01:36:43;79448.13;;;-144.67;100.00
47522;BME280;32291;52.010;4.446;2023-04-08T01:37:49;79443.84;;;-144.67;100.00
47522;BME280;32291;52.010;4.446;2023-04-08T01:38:52;79443.84;;;-144.67;100.00
47522;BME280;32291;52.010;4.446;2023-04-08T01:39:55;79443.84;;;-144.67;100.00
47522;BME280;32291;52.010;4.446;2023-04-08T01:40:58;79441.72;;;-144.67;100.00
47522;BME280;32291;52.010;4.446;2023-04-08T01:42:01;79439.56;;;-144.67;100.00
47522;BME280;32291;52.010;4.446;2023-04-08T01:43:07;79452.41;;;-144.67;100.00
47522;BME280;32291;52.010;4.446;2023-04-08T01:44:12;79443.84;;;-144.67;100.00
47522;BME280;32291;52.010;4.446;2023-04-08T01:45:15;79443.84;;;-144.67;100.00
47522;BME280;32291;52.010;4.446;2023-04-08T01:46:19;79439.56;;;-144.67;100.00
47522;BME280;32291;52.010;4.446;2023-04-08T01:47:22;79435.28;;;-144.67;100.00
47522;BME280;32291;52.010;4.446;2023-04-08T01:48:25;79431.00;;;-144.67;100.00
47522;BME280;32291;52.010;4.446;2023-04-08T01:49:29;79439.56;;;-144.67;100.00
47522;BME280;32291;52.010;4.446;2023-04-08T01:50:32;79435.28;;;-144.67;100.00
47522;BME280;32291;52.010;4.446;2023-04-08T01:51:37;79435.28;;;-144.67;100.00
47522;BME280;32291;52.010;4.446;2023-04-08T01:52:40;79439.56;;;-144.67;100.00
47522;BME280;32291;52.010;4.446;2023-04-08T01:53:43;79441.72;;;-144.67;100.00
47522;BME280;32291;52.010;4.446;2023-04-08T01:54:46;79435.28;;;-144.67;100.00
47522;BME280;32291;52.010;4.446;2023-04-08T01:55:54;79441.72;;;-144.67;100.00
47522;BME280;32291;52.010;4.446;2023-04-08T01:56:58;79439.56;;;-144.67;100.00
47522;BME280;32291;52.010;4.446;2023-04-08T01:58:04;79443.84;;;-144.67;100.00
47522;BME280;32291;52.010;4.446;2023-04-08T01:59:13;79435.28;;;-144.67;100.00
47522;BME280;32291;52.010;4.446;2023-04-08T02:00:23;79433.16;;;-144.67;100.00
47522;BME280;32291;52.010;4.446;2023-04-08T02:01:27;79433.16;;;-144.67;100.00
47522;BME280;32291;52.010;4.446;2023-04-08T02:02:32;79428.88;;;-144.67;100.00
47522;BME280;32291;52.010;4.446;2023-04-08T02:03:37;79435.28;;;-144.67;100.00
47522;BME280;32291;52.010;4.446;2023-04-08T02:04:39;79435.28;;;-144.67;100.00
47522;BME280;32291;52.010;4.446;2023-04-08T02:05:41;79437.44;;;-144.67;100.00
47522;BME280;32291;52.010;4.446;2023-04-08T02:06:42;79439.56;;;-144.67;100.00
47522;BME280;32291;52.010;4.446;2023-04-08T02:07:49;79439.56;;;-144.67;100.00
47522;BME280;32291;52.010;4.446;2023-04-08T02:08:51;79458.84;;;-144.67;100.00
47522;BME280;32291;52.010;4.446;2023-04-08T02:09:55;79461.00;;;-144.67;100.00
47522;BME280;32291;52.010;4.446;2023-04-08T02:10:57;79461.00;;;-144.67;100.00
47522;BME280;32291;52.010;4.446;2023-04-08T02:11:59;79458.84;;;-144.67;100.00
47522;BME280;32291;52.010;4.446;2023-04-08T02:13:01;79467.41;;;-144.67;100.00
47522;BME280;32291;52.010;4.446;2023-04-08T02:14:03;79486.69;;;-144.67;100.00
47522;BME280;32291;52.010;4.446;2023-04-08T02:15:07;79488.84;;;-144.67;100.00
47522;BME280;32291;52.010;4.446;2023-04-08T02:17:08;79499.53;;;-144.67;100.00
47522;BME280;32291;52.010;4.446;2023-04-08T02:18:05;79512.38;;;-144.67;100.00
47522;BME280;32291;52.010;4.446;2023-04-08T02:19:20;79518.81;;;-144.67;100.00
47522;BME280;32291;52.010;4.446;2023-04-08T02:20:42;79518.81;;;-144.67;100.00
47522;BME280;32291;52.010;4.446;2023-04-08T02:21:52;79520.97;;;-144.67;100.00
47522;BME280;32291;52.010;4.446;2023-04-08T02:23:00;79518.81;;;-144.67;100.00
47522;BME280;32291;52.010;4.446;2023-04-08T02:24:08;79514.53;;;-144.67;100.00
47522;BME280;32291;52.010;4.446;2023-04-08T02:25:15;79527.38;;;-144.67;100.00
47522;BME280;32291;52.010;4.446;2023-04-08T02:26:17;79533.81;;;-144.67;100.00
47522;BME280;32291;52.010;4.446;2023-04-08T02:27:23;79531.66;;;-144.67;100.00
47522;BME280;32291;52.010;4.446;2023-04-08T02:28:27;79533.81;;;-144.67;100.00
47522;BME280;32291;52.010;4.446;2023-04-08T02:29:33;79542.38;;;-144.67;100.00
47522;BME280;32291;52.010;4.446;2023-04-08T02:30:42;79531.66;;;-144.67;100.00
47522;BME280;32291;52.010;4.446;2023-04-08T02:31:45;79531.66;;;-144.67;100.00
47522;BME280;32291;52.010;4.446;2023-04-08T02:32:49;79546.66;;;-144.67;100.00
47522;BME280;32291;52.010;4.446;2023-04-08T02:33:52;79540.22;;;-144.67;100.00
47522;BME280;32291;52.010;4.446;2023-04-08T02:34:56;79538.09;;;-144.67;100.00
47522;BME280;32291;52.010;4.446;2023-04-08T02:36:01;79535.94;;;-144.67;100.00
47522;BME280;32291;52.010;4.446;2023-04-08T02:37:04;79538.09;;;-144.67;100.00
47522;BME280;32291;52.010;4.446;2023-04-08T02:38:08;79548.81;;;-144.67;100.00
47522;BME280;32291;52.010;4.446;2023-04-08T02:39:10;79542.38;;;-144.67;100.00
47522;BME280;32291;52.010;4.446;2023-04-08T02:40:41;79542.38;;;-144.67;100.00
47522;BME280;32291;52.010;4.446;2023-04-08T02:41:43;79546.66;;;-144.67;100.00
47522;BME280;32291;52.010;4.446;2023-04-08T02:42:45;79559.50;;;-144.67;100.00
47522;BME280;32291;52.010;4.446;2023-04-08T02:43:46;79559.50;;;-144.67;100.00
47522;BME280;32291;52.010;4.446;2023-04-08T02:44:48;79568.06;;;-144.67;100.00
47522;BME280;32291;52.010;4.446;2023-04-08T02:45:50;79565.94;;;-144.67;100.00
47522;BME280;32291;52.010;4.446;2023-04-08T02:46:51;79578.78;;;-144.67;100.00
47522;BME280;32291;52.010;4.446;2023-04-08T02:47:53;79580.94;;;-144.67;100.00
47522;BME280;32291;52.010;4.446;2023-04-08T02:48:55;79585.22;;;-144.67;100.00
47522;BME280;32291;52.010;4.446;2023-04-08T02:49:56;79585.22;;;-144.67;100.00
47522;BME280;32291;52.010;4.446;2023-04-08T02:50:58;79576.63;;;-144.67;100.00
47522;BME280;32291;52.010;4.446;2023-04-08T02:52:00;79589.50;;;-144.67;100.00
47522;BME280;32291;52.010;4.446;2023-04-08T02:53:02;79583.06;;;-144.67;100.00
47522;BME280;32291;52.010;4.446;2023-04-08T02:54:04;79580.94;;;-144.67;100.00
47522;BME280;32291;52.010;4.446;2023-04-08T02:55:06;79591.63;;;-144.67;100.00
47522;BME280;32291;52.010;4.446;2023-04-08T02:56:10;79585.22;;;-144.67;100.00
47522;BME280;32291;52.010;4.446;2023-04-08T02:57:12;79593.78;;;-144.67;100.00
47522;BME280;32291;52.010;4.446;2023-04-08T02:58:14;79589.50;;;-144.67;100.00
47522;BME280;32291;52.010;4.446;2023-04-08T02:59:16;79593.78;;;-144.67;100.00
47522;BME280;32291;52.010;4.446;2023-04-08T03:00:17;79595.91;;;-144.67;100.00
47522;BME280;32291;52.010;4.446;2023-04-08T03:01:19;79593.78;;;-144.67;100.00
47522;BME280;32291;52.010;4.446;2023-04-08T03:02:21;79602.34;;;-144.67;100.00
47522;BME280;32291;52.010;4.446;2023-04-08T03:03:22;79606.63;;;-144.67;100.00
47522;BME280;32291;52.010;4.446;2023-04-08T03:04:32;79593.78;;;-144.67;100.00
47522;BME280;32291;52.010;4.446;2023-04-08T03:05:33;79589.50;;;-144.67;100.00
47522;BME280;32291;52.010;4.446;2023-04-08T03:06:35;79589.50;;;-144.67;100.00
47522;BME280;32291;52.010;4.446;2023-04-08T03:07:37;79595.91;;;-144.67;100.00
47522;BME280;32291;52.010;4.446;2023-04-08T03:08:38;79589.50;;;-144.67;100.00
47522;BME280;32291;52.010;4.446;2023-04-08T03:09:40;79593.78;;;-144.67;100.00
47522;BME280;32291;52.010;4.446;2023-04-08T03:10:43;79602.34;;;-144.67;100.00
47522;BME280;32291;52.010;4.446;2023-04-08T03:11:44;79602.34;;;-144.67;100.00
47522;BME280;32291;52.010;4.446;2023-04-08T03:12:53;79602.34;;;-144.67;100.00
47522;BME280;32291;52.010;4.446;2023-04-08T03:13:54;79606.63;;;-144.67;100.00
47522;BME280;32291;52.010;4.446;2023-04-08T03:14:56;79593.78;;;-144.67;100.00
47522;BME280;32291;52.010;4.446;2023-04-08T03:15:58;79598.06;;;-144.67;100.00
47522;BME280;32291;52.010;4.446;2023-04-08T03:16:59;79587.34;;;-144.67;100.00
47522;BME280;32291;52.010;4.446;2023-04-08T03:18:02;79576.63;;;-144.67;100.00
47522;BME280;32291;52.010;4.446;2023-04-08T03:19:04;79576.63;;;-144.67;100.00
47522;BME280;32291;52.010;4.446;2023-04-08T03:20:07;79576.63;;;-144.67;100.00
47522;BME280;32291;52.010;4.446;2023-04-08T03:21:09;79572.34;;;-144.67;100.00
47522;BME280;32291;52.010;4.446;2023-04-08T03:22:12;79578.78;;;-144.67;100.00
47522;BME280;32291;52.010;4.446;2023-04-08T03:23:14;79576.63;;;-144.67;100.00
47522;BME280;32291;52.010;4.446;2023-04-08T03:24:16;79595.91;;;-144.67;100.00
47522;BME280;32291;52.010;4.446;2023-04-08T03:25:18;79602.34;;;-144.67;100.00
47522;BME280;32291;52.010;4.446;2023-04-08T03:26:20;79598.06;;;-144.67;100.00
47522;BME280;32291;52.010;4.446;2023-04-08T03:27:23;79602.34;;;-144.67;100.00
47522;BME280;32291;52.010;4.446;2023-04-08T03:28:24;79602.34;;;-144.67;100.00
47522;BME280;32291;52.010;4.446;2023-04-08T03:29:26;79598.06;;;-144.67;100.00
47522;BME280;32291;52.010;4.446;2023-04-08T03:30:28;79606.63;;;-144.67;100.00
47522;BME280;32291;52.010;4.446;2023-04-08T03:31:29;79602.34;;;-144.67;100.00
47522;BME280;32291;52.010;4.446;2023-04-08T03:32:32;79593.78;;;-144.67;100.00
47522;BME280;32291;52.010;4.446;2023-04-08T03:33:33;79600.19;;;-144.67;100.00
47522;BME280;32291;52.010;4.446;2023-04-08T03:34:36;79598.06;;;-144.67;100.00
47522;BME280;32291;52.010;4.446;2023-04-08T03:35:38;79602.34;;;-144.67;100.00
47522;BME280;32291;52.010;4.446;2023-04-08T03:36:40;79602.34;;;-144.67;100.00
47522;BME280;32291;52.010;4.446;2023-04-08T03:37:41;79585.22;;;-144.67;100.00
47522;BME280;32291;52.010;4.446;2023-04-08T03:38:43;79580.94;;;-144.67;100.00
47522;BME280;32291;52.010;4.446;2023-04-08T03:39:45;79576.63;;;-144.67;100.00
47522;BME280;32291;52.010;4.446;2023-04-08T03:40:47;79589.50;;;-144.67;100.00
47522;BME280;32291;52.010;4.446;2023-04-08T03:41:49;79585.22;;;-144.67;100.00
47522;BME280;32291;52.010;4.446;2023-04-08T03:42:51;79585.22;;;-144.67;100.00
47522;BME280;32291;52.010;4.446;2023-04-08T03:43:53;79602.34;;;-144.67;100.00
47522;BME280;32291;52.010;4.446;2023-04-08T03:44:55;79598.06;;;-144.67;100.00
47522;BME280;32291;52.010;4.446;2023-04-08T03:45:57;79593.78;;;-144.67;100.00
47522;BME280;32291;52.010;4.446;2023-04-08T03:46:59;79576.63;;;-144.67;100.00
47522;BME280;32291;52.010;4.446;2023-04-08T03:48:01;79578.78;;;-144.67;100.00
47522;BME280;32291;52.010;4.446;2023-04-08T03:49:03;79574.50;;;-144.67;100.00
47522;BME280;32291;52.010;4.446;2023-04-08T03:50:05;79568.06;;;-144.67;100.00
47522;BME280;32291;52.010;4.446;2023-04-08T03:51:07;79576.63;;;-144.67;100.00
47522;BME280;32291;52.010;4.446;2023-04-08T03:52:09;79585.22;;;-144.67;100.00
47522;BME280;32291;52.010;4.446;2023-04-08T03:53:11;79580.94;;;-144.67;100.00
47522;BME280;32291;52.010;4.446;2023-04-08T03:54:13;79570.22;;;-144.67;100.00
47522;BME280;32291;52.010;4.446;2023-04-08T03:55:14;79576.63;;;-144.67;100.00
47522;BME280;32291;52.010;4.446;2023-04-08T03:56:16;79580.94;;;-144.67;100.00
47522;BME280;32291;52.010;4.446;2023-04-08T03:57:18;79583.06;;;-144.67;100.00
47522;BME280;32291;52.010;4.446;2023-04-08T03:58:19;79580.94;;;-144.67;100.00
47522;BME280;32291;52.010;4.446;2023-04-08T03:59:21;79576.63;;;-144.67;100.00
47522;BME280;32291;52.010;4.446;2023-04-08T04:00:24;79563.78;;;-144.67;100.00
47522;BME280;32291;52.010;4.446;2023-04-08T04:01:26;79561.66;;;-144.67;100.00
47522;BME280;32291;52.010;4.446;2023-04-08T04:02:27;79576.63;;;-144.67;100.00
47522;BME280;32291;52.010;4.446;2023-04-08T04:03:29;79583.06;;;-144.67;100.00
47522;BME280;32291;52.010;4.446;2023-04-08T04:04:30;79574.50;;;-144.67;100.00
47522;BME280;32291;52.010;4.446;2023-04-08T04:05:32;79565.94;;;-144.67;100.00
47522;BME280;32291;52.010;4.446;2023-04-08T04:06:33;79568.06;;;-144.67;100.00
47522;BME280;32291;52.010;4.446;2023-04-08T04:07:36;79570.22;;;-144.67;100.00
47522;BME280;32291;52.010;4.446;2023-04-08T04:08:37;79555.22;;;-144.67;100.00
47522;BME280;32291;52.010;4.446;2023-04-08T04:09:39;79559.50;;;-144.67;100.00
47522;BME280;32291;52.010;4.446;2023-04-08T04:10:41;79555.22;;;-144.67;100.00
47522;BME280;32291;52.010;4.446;2023-04-08T04:11:42;79555.22;;;-144.67;100.00
47522;BME280;32291;52.010;4.446;2023-04-08T04:12:44;79555.22;;;-144.67;100.00
47522;BME280;32291;52.010;4.446;2023-04-08T04:13:46;79550.94;;;-144.67;100.00
47522;BME280;32291;52.010;4.446;2023-04-08T04:14:48;79559.50;;;-144.67;100.00
47522;BME280;32291;52.010;4.446;2023-04-08T04:15:50;79568.06;;;-144.67;100.00
47522;BME280;32291;52.010;4.446;2023-04-08T04:16:52;79561.66;;;-144.67;100.00
47522;BME280;32291;52.010;4.446;2023-04-08T04:17:54;79576.63;;;-144.67;100.00
47522;BME280;32291;52.010;4.446;2023-04-08T04:18:56;79580.94;;;-144.67;100.00
47522;BME280;32291;52.010;4.446;2023-04-08T04:19:58;79580.94;;;-144.67;100.00
47522;BME280;32291;52.010;4.446;2023-04-08T04:21:00;79580.94;;;-144.67;100.00
47522;BME280;32291;52.010;4.446;2023-04-08T04:22:01;79583.06;;;-144.67;100.00
47522;BME280;32291;52.010;4.446;2023-04-08T04:23:03;79585.22;;;-144.67;100.00
47522;BME280;32291;52.010;4.446;2023-04-08T04:24:04;79589.50;;;-144.67;100.00
47522;BME280;32291;52.010;4.446;2023-04-08T04:25:07;79583.06;;;-144.67;100.00
47522;BME280;32291;52.010;4.446;2023-04-08T04:26:10;79580.94;;;-144.67;100.00
47522;BME280;32291;52.010;4.446;2023-04-08T04:27:12;79576.63;;;-144.67;100.00
47522;BME280;32291;52.010;4.446;2023-04-08T04:28:13;79591.63;;;-144.67;100.00
47522;BME280;32291;52.010;4.446;2023-04-08T04:29:16;79585.22;;;-144.67;100.00
47522;BME280;32291;52.010;4.446;2023-04-08T04:30:19;79576.63;;;-144.67;100.00
47522;BME280;32291;52.010;4.446;2023-04-08T04:31:23;79568.06;;;-144.67;100.00
47522;BME280;32291;52.010;4.446;2023-04-08T04:32:28;79561.66;;;-144.67;100.00
47522;BME280;32291;52.010;4.446;2023-04-08T04:33:30;79563.78;;;-144.67;100.00
47522;BME280;32291;52.010;4.446;2023-04-08T04:34:32;79565.94;;;-144.67;100.00
47522;BME280;32291;52.010;4.446;2023-04-08T04:35:33;79565.94;;;-144.67;100.00
47522;BME280;32291;52.010;4.446;2023-04-08T04:36:35;79580.94;;;-144.67;100.00
47522;BME280;32291;52.010;4.446;2023-04-08T04:37:37;79576.63;;;-144.67;100.00
47522;BME280;32291;52.010;4.446;2023-04-08T04:38:38;79568.06;;;-144.67;100.00
47522;BME280;32291;52.010;4.446;2023-04-08T04:39:40;79568.06;;;-144.67;100.00
47522;BME280;32291;52.010;4.446;2023-04-08T04:40:42;79576.63;;;-144.67;100.00
47522;BME280;32291;52.010;4.446;2023-04-08T04:41:44;79570.22;;;-144.67;100.00
47522;BME280;32291;52.010;4.446;2023-04-08T04:42:48;79568.06;;;-144.67;100.00
47522;BME280;32291;52.010;4.446;2023-04-08T04:43:49;79555.22;;;-144.67;100.00
47522;BME280;32291;52.010;4.446;2023-04-08T04:44:51;79561.66;;;-144.67;100.00
47522;BME280;32291;52.010;4.446;2023-04-08T04:45:55;79563.78;;;-144.67;100.00
47522;BME280;32291;52.010;4.446;2023-04-08T04:46:57;79580.94;;;-144.67;100.00
47522;BME280;32291;52.010;4.446;2023-04-08T04:47:59;79565.94;;;-144.67;100.00
47522;BME280;32291;52.010;4.446;2023-04-08T04:49:01;79568.06;;;-144.67;100.00
47522;BME280;32291;52.010;4.446;2023-04-08T04:50:03;79576.63;;;-144.67;100.00
47522;BME280;32291;52.010;4.446;2023-04-08T04:51:04;79565.94;;;-144.67;100.00
47522;BME280;32291;52.010;4.446;2023-04-08T04:52:07;79572.34;;;-144.67;100.00
47522;BME280;32291;52.010;4.446;2023-04-08T04:53:09;79574.50;;;-144.67;100.00
47522;BME280;32291;52.010;4.446;2023-04-08T04:54:11;79576.63;;;-144.67;100.00
47522;BME280;32291;52.010;4.446;2023-04-08T04:55:12;79576.63;;;-144.67;100.00
47522;BME280;32291;52.010;4.446;2023-04-08T04:56:16;79563.78;;;-144.67;100.00
47522;BME280;32291;52.010;4.446;2023-04-08T04:57:17;79559.50;;;-144.67;100.00
47522;BME280;32291;52.010;4.446;2023-04-08T04:58:19;79559.50;;;-144.67;100.00
47522;BME280;32291;52.010;4.446;2023-04-08T04:59:20;79572.34;;;-144.67;100.00
47522;BME280;32291;52.010;4.446;2023-04-08T05:00:22;79568.06;;;-144.67;100.00
47522;BME280;32291;52.010;4.446;2023-04-08T05:01:24;79563.78;;;-144.67;100.00
47522;BME280;32291;52.010;4.446;2023-04-08T05:02:26;79565.94;;;-144.67;100.00
47522;BME280;32291;52.010;4.446;2023-04-08T05:03:28;79580.94;;;-144.67;100.00
47522;BME280;32291;52.010;4.446;2023-04-08T05:04:30;79585.22;;;-144.67;100.00
47522;BME280;32291;52.010;4.446;2023-04-08T05:05:32;79585.22;;;-144.67;100.00
47522;BME280;32291;52.010;4.446;2023-04-08T05:06:33;79585.22;;;-144.67;100.00
47522;BME280;32291;52.010;4.446;2023-04-08T05:07:37;79583.06;;;-144.67;100.00
47522;BME280;32291;52.010;4.446;2023-04-08T05:08:39;79583.06;;;-144.67;100.00
47522;BME280;32291;52.010;4.446;2023-04-08T05:09:41;79580.94;;;-144.67;100.00
47522;BME280;32291;52.010;4.446;2023-04-08T05:10:43;79585.22;;;-144.67;100.00
47522;BME280;32291;52.010;4.446;2023-04-08T05:11:45;79585.22;;;-144.67;100.00
47522;BME280;32291;52.010;4.446;2023-04-08T05:12:47;79591.63;;;-144.67;100.00
47522;BME280;32291;52.010;4.446;2023-04-08T05:13:49;79602.34;;;-144.67;100.00
47522;BME280;32291;52.010;4.446;2023-04-08T05:14:50;79598.06;;;-144.67;100.00
47522;BME280;32291;52.010;4.446;2023-04-08T05:15:52;79606.63;;;-144.67;100.00
47522;BME280;32291;52.010;4.446;2023-04-08T05:16:53;79610.91;;;-144.67;100.00
47522;BME280;32291;52.010;4.446;2023-04-08T05:17:55;79613.06;;;-144.67;100.00
47522;BME280;32291;52.010;4.446;2023-04-08T05:18:57;79608.78;;;-144.67;100.00
47522;BME280;32291;52.010;4.446;2023-04-08T05:19:59;79613.06;;;-144.67;100.00
47522;BME280;32291;52.010;4.446;2023-04-08T05:21:02;79619.47;;;-144.67;100.00
47522;BME280;32291;52.010;4.446;2023-04-08T05:22:04;79619.47;;;-144.67;100.00
47522;BME280;32291;52.010;4.446;2023-04-08T05:23:05;79617.34;;;-144.67;100.00
47522;BME280;32291;52.010;4.446;2023-04-08T05:24:08;79619.47;;;-144.67;100.00
47522;BME280;32291;52.010;4.446;2023-04-08T05:25:10;79615.19;;;-144.67;100.00
47522;BME280;32291;52.010;4.446;2023-04-08T05:26:11;79610.91;;;-144.67;100.00
47522;BME280;32291;52.010;4.446;2023-04-08T05:27:13;79610.91;;;-144.67;100.00